WMT4NJ EGGP-LRIA
Flight info
| Callsign | WMT4NJ |
|---|---|
| Flight time | 3h 1m |
| Altitude | 37000 |
| Route | BARTN L975 DESIG L603 LAMSO DCT SPY DCT KUMER DCT OMELO DCT KEKED DCT SOMET DCT HUMOR DCT TOMUC P133 ARPIG |
| Aircraft | A320/M-SDE1E2E3FGIJ1J4RWXY/LB1 |
Departure
| Time | 2026-04-26 10:00 |
|---|---|
| Airport | Liverpool John Lennon Airport (EGGP) |
Arrival
| Time | 2026-04-26 13:01 |
|---|---|
| Airport | Iaşi International Airport (LRIA) |
| Time | Latitude | Longitude | Altitude | Speed | Heading |
|---|---|---|---|---|---|
| 2026-04-26 09:30 | 53.33641 | -2.84943 | 95 ft | 0 kts | 84° |
| 2026-04-26 09:49 | 53.33641 | -2.84944 | 94 ft | 0 kts | 84° |
| 2026-04-26 09:49 | 53.33640 | -2.84966 | 96 ft | 3 kts | 88° |
| 2026-04-26 09:50 | 53.33639 | -2.84974 | 95 ft | 0 kts | 90° |
| 2026-04-26 09:51 | 53.33639 | -2.84980 | 94 ft | 2 kts | 90° |
| 2026-04-26 09:51 | 53.33640 | -2.85008 | 93 ft | 2 kts | 90° |
| 2026-04-26 09:51 | 53.33640 | -2.85036 | 92 ft | 2 kts | 89° |
| 2026-04-26 09:52 | 53.33644 | -2.85061 | 94 ft | 2 kts | 131° |
| 2026-04-26 09:52 | 53.33658 | -2.85077 | 94 ft | 0 kts | 173° |
| 2026-04-26 09:53 | 53.33644 | -2.85075 | 94 ft | 0 kts | 175° |
| 2026-04-26 09:54 | 53.33634 | -2.85072 | 96 ft | 4 kts | 173° |
| 2026-04-26 09:54 | 53.33581 | -2.85064 | 94 ft | 9 kts | 175° |
| 2026-04-26 09:54 | 53.33524 | -2.85107 | 94 ft | 10 kts | 255° |
| 2026-04-26 09:54 | 53.33517 | -2.85243 | 95 ft | 13 kts | 270° |
| 2026-04-26 09:55 | 53.33509 | -2.85404 | 96 ft | 15 kts | 262° |
| 2026-04-26 09:55 | 53.33501 | -2.85577 | 94 ft | 15 kts | 269° |
| 2026-04-26 09:55 | 53.33496 | -2.85730 | 98 ft | 11 kts | 269° |
| 2026-04-26 09:55 | 53.33489 | -2.85865 | 94 ft | 11 kts | 263° |
| 2026-04-26 09:56 | 53.33481 | -2.85993 | 96 ft | 9 kts | 265° |
| 2026-04-26 09:56 | 53.33476 | -2.86116 | 94 ft | 12 kts | 265° |
| 2026-04-26 09:56 | 53.33472 | -2.86183 | 94 ft | 5 kts | 266° |
| 2026-04-26 09:56 | 53.33471 | -2.86225 | 94 ft | 1 kts | 267° |
| 2026-04-26 09:57 | 53.33471 | -2.86250 | 94 ft | 3 kts | 269° |
| 2026-04-26 09:57 | 53.33470 | -2.86301 | 94 ft | 6 kts | 268° |
| 2026-04-26 09:57 | 53.33465 | -2.86356 | 96 ft | 4 kts | 261° |
| 2026-04-26 09:57 | 53.33459 | -2.86417 | 94 ft | 6 kts | 261° |
| 2026-04-26 09:58 | 53.33452 | -2.86503 | 96 ft | 8 kts | 266° |
| 2026-04-26 09:58 | 53.33448 | -2.86612 | 97 ft | 10 kts | 257° |
| 2026-04-26 09:58 | 53.33404 | -2.86717 | 94 ft | 12 kts | 214° |
| 2026-04-26 09:58 | 53.33321 | -2.86688 | 96 ft | 14 kts | 147° |
| 2026-04-26 09:59 | 53.33289 | -2.86542 | 95 ft | 15 kts | 77° |
| 2026-04-26 09:59 | 53.33297 | -2.86422 | 96 ft | 17 kts | 88° |
| 2026-04-26 09:59 | 53.33338 | -2.85468 | 94 ft | 109 kts | 85° |
| 2026-04-26 09:59 | 53.33407 | -2.83886 | 164 ft | 156 kts | 92° |
| 2026-04-26 10:00 | 53.33467 | -2.82654 | 553 ft | 163 kts | 89° |
| 2026-04-26 10:00 | 53.33598 | -2.80764 | 1335 ft | 164 kts | 92° |
| 2026-04-26 10:00 | 53.33899 | -2.78809 | 1828 ft | 190 kts | 66° |
| 2026-04-26 10:00 | 53.34875 | -2.77135 | 2211 ft | 217 kts | 29° |
| 2026-04-26 10:01 | 53.36408 | -2.76473 | 2545 ft | 241 kts | 6° |
| 2026-04-26 10:01 | 53.38080 | -2.75611 | 2942 ft | 266 kts | 32° |
| 2026-04-26 10:01 | 53.39387 | -2.73373 | 3707 ft | 273 kts | 62° |
| 2026-04-26 10:01 | 53.40015 | -2.70376 | 4655 ft | 274 kts | 78° |
| 2026-04-26 10:02 | 53.40421 | -2.67229 | 5581 ft | 277 kts | 79° |
| 2026-04-26 10:02 | 53.40812 | -2.64069 | 6546 ft | 277 kts | 80° |
| 2026-04-26 10:02 | 53.41207 | -2.60898 | 7408 ft | 280 kts | 79° |
| 2026-04-26 10:02 | 53.41597 | -2.57685 | 8180 ft | 284 kts | 84° |
| 2026-04-26 10:03 | 53.41578 | -2.54377 | 8975 ft | 286 kts | 96° |
| 2026-04-26 10:03 | 53.41410 | -2.51025 | 9785 ft | 290 kts | 96° |
| 2026-04-26 10:03 | 53.41236 | -2.47632 | 10514 ft | 295 kts | 96° |
| 2026-04-26 10:03 | 53.41050 | -2.44071 | 10768 ft | 318 kts | 96° |
| 2026-04-26 10:04 | 53.40852 | -2.40308 | 11072 ft | 335 kts | 96° |
| 2026-04-26 10:04 | 53.40644 | -2.36331 | 11681 ft | 341 kts | 96° |
| 2026-04-26 10:04 | 53.40437 | -2.32335 | 12355 ft | 346 kts | 96° |
| 2026-04-26 10:04 | 53.40229 | -2.28299 | 13008 ft | 350 kts | 96° |
| 2026-04-26 10:05 | 53.40019 | -2.24217 | 13672 ft | 354 kts | 96° |
| 2026-04-26 10:05 | 53.39803 | -2.20082 | 14305 ft | 358 kts | 96° |
| 2026-04-26 10:05 | 53.39584 | -2.15904 | 14885 ft | 362 kts | 96° |
| 2026-04-26 10:05 | 53.39361 | -2.11687 | 15450 ft | 366 kts | 96° |
| 2026-04-26 10:06 | 53.39134 | -2.07421 | 16023 ft | 369 kts | 96° |
| 2026-04-26 10:06 | 53.38901 | -2.03124 | 16588 ft | 373 kts | 97° |
| 2026-04-26 10:06 | 53.38668 | -1.98841 | 17154 ft | 376 kts | 97° |
| 2026-04-26 10:06 | 53.38430 | -1.94461 | 17727 ft | 380 kts | 97° |
| 2026-04-26 10:07 | 53.38183 | -1.89977 | 18303 ft | 383 kts | 97° |
| 2026-04-26 10:07 | 53.37937 | -1.85579 | 18833 ft | 387 kts | 97° |
| 2026-04-26 10:07 | 53.37685 | -1.81072 | 19327 ft | 390 kts | 96° |
| 2026-04-26 10:07 | 53.37429 | -1.76517 | 19830 ft | 394 kts | 96° |
| 2026-04-26 10:08 | 53.37168 | -1.71934 | 20336 ft | 398 kts | 96° |
| 2026-04-26 10:08 | 53.36901 | -1.67304 | 20827 ft | 401 kts | 96° |
| 2026-04-26 10:08 | 53.36627 | -1.62626 | 21289 ft | 405 kts | 96° |
| 2026-04-26 10:08 | 53.36350 | -1.57917 | 21740 ft | 409 kts | 96° |
| 2026-04-26 10:09 | 53.36071 | -1.53157 | 22181 ft | 412 kts | 96° |
| 2026-04-26 10:09 | 53.35792 | -1.48370 | 22558 ft | 417 kts | 96° |
| 2026-04-26 10:09 | 53.35504 | -1.43501 | 23005 ft | 421 kts | 96° |
| 2026-04-26 10:09 | 53.35211 | -1.38610 | 23447 ft | 424 kts | 96° |
| 2026-04-26 10:10 | 53.34754 | -1.33717 | 23872 ft | 427 kts | 101° |
| 2026-04-26 10:10 | 53.34177 | -1.28817 | 24238 ft | 431 kts | 102° |
| 2026-04-26 10:10 | 53.33559 | -1.23896 | 24613 ft | 433 kts | 103° |
| 2026-04-26 10:10 | 53.32915 | -1.18959 | 24987 ft | 436 kts | 103° |
| 2026-04-26 10:11 | 53.32263 | -1.13996 | 25362 ft | 439 kts | 103° |
| 2026-04-26 10:11 | 53.31609 | -1.08995 | 25734 ft | 441 kts | 103° |
| 2026-04-26 10:11 | 53.30958 | -1.03968 | 26099 ft | 444 kts | 103° |
| 2026-04-26 10:11 | 53.30306 | -0.98903 | 26456 ft | 447 kts | 102° |
| 2026-04-26 10:12 | 53.29651 | -0.93816 | 26807 ft | 450 kts | 103° |
| 2026-04-26 10:12 | 53.28990 | -0.88689 | 27165 ft | 452 kts | 103° |
| 2026-04-26 10:12 | 53.28321 | -0.83530 | 27513 ft | 455 kts | 103° |
| 2026-04-26 10:12 | 53.27649 | -0.78364 | 27862 ft | 457 kts | 103° |
| 2026-04-26 10:13 | 53.26970 | -0.73154 | 28212 ft | 460 kts | 103° |
| 2026-04-26 10:13 | 53.26287 | -0.67928 | 28565 ft | 462 kts | 103° |
| 2026-04-26 10:13 | 53.25595 | -0.62665 | 28908 ft | 465 kts | 103° |
| 2026-04-26 10:13 | 53.24897 | -0.57385 | 29247 ft | 467 kts | 103° |
| 2026-04-26 10:14 | 53.24192 | -0.52080 | 29615 ft | 469 kts | 103° |
| 2026-04-26 10:14 | 53.23479 | -0.46746 | 29963 ft | 472 kts | 103° |
| 2026-04-26 10:14 | 53.22757 | -0.41398 | 30299 ft | 474 kts | 103° |
| 2026-04-26 10:14 | 53.22031 | -0.36022 | 30603 ft | 477 kts | 103° |
| 2026-04-26 10:15 | 53.21301 | -0.30608 | 30883 ft | 479 kts | 103° |
| 2026-04-26 10:15 | 53.20568 | -0.25185 | 31275 ft | 478 kts | 103° |
| 2026-04-26 10:15 | 53.19835 | -0.19787 | 31703 ft | 477 kts | 103° |
| 2026-04-26 10:15 | 53.19102 | -0.14397 | 32127 ft | 476 kts | 103° |
| 2026-04-26 10:16 | 53.18368 | -0.09023 | 32550 ft | 475 kts | 103° |
| 2026-04-26 10:16 | 53.17632 | -0.03660 | 32975 ft | 474 kts | 103° |
| 2026-04-26 10:16 | 53.16894 | 0.01695 | 33398 ft | 474 kts | 103° |
| 2026-04-26 10:16 | 53.16155 | 0.07038 | 33799 ft | 473 kts | 103° |
| 2026-04-26 10:17 | 53.15413 | 0.12385 | 34208 ft | 473 kts | 103° |
| 2026-04-26 10:17 | 53.14672 | 0.17714 | 34575 ft | 472 kts | 103° |
| 2026-04-26 10:17 | 53.13927 | 0.23034 | 34923 ft | 471 kts | 103° |
| 2026-04-26 10:17 | 53.13180 | 0.28344 | 35254 ft | 471 kts | 103° |
| 2026-04-26 10:18 | 53.12435 | 0.33642 | 35588 ft | 470 kts | 103° |
| 2026-04-26 10:18 | 53.11688 | 0.38929 | 35910 ft | 469 kts | 103° |
| 2026-04-26 10:18 | 53.10940 | 0.44210 | 36236 ft | 468 kts | 103° |
| 2026-04-26 10:18 | 53.10190 | 0.49477 | 36546 ft | 467 kts | 103° |
| 2026-04-26 10:19 | 53.09438 | 0.54734 | 36859 ft | 467 kts | 103° |
| 2026-04-26 10:19 | 53.08684 | 0.59981 | 37171 ft | 466 kts | 103° |
| 2026-04-26 10:19 | 53.07929 | 0.65219 | 37338 ft | 466 kts | 103° |
| 2026-04-26 10:19 | 53.07173 | 0.70473 | 37363 ft | 468 kts | 103° |
| 2026-04-26 10:20 | 53.05913 | 0.79230 | 37364 ft | 469 kts | 103° |
| 2026-04-26 10:20 | 53.04129 | 0.91472 | 37366 ft | 469 kts | 103° |
| 2026-04-26 10:21 | 53.02578 | 1.02005 | 37375 ft | 469 kts | 103° |
| 2026-04-26 10:21 | 53.01027 | 1.12518 | 37369 ft | 469 kts | 103° |
| 2026-04-26 10:22 | 52.99461 | 1.23018 | 37365 ft | 469 kts | 103° |
| 2026-04-26 10:22 | 52.97877 | 1.33516 | 37377 ft | 469 kts | 103° |
| 2026-04-26 10:23 | 52.96304 | 1.44012 | 37392 ft | 469 kts | 103° |
| 2026-04-26 10:23 | 52.94711 | 1.54502 | 37402 ft | 469 kts | 103° |
| 2026-04-26 10:24 | 52.93105 | 1.64976 | 37401 ft | 469 kts | 103° |
| 2026-04-26 10:24 | 52.91492 | 1.75448 | 37402 ft | 469 kts | 104° |
| 2026-04-26 10:25 | 52.89872 | 1.85905 | 37401 ft | 469 kts | 104° |
| 2026-04-26 10:25 | 52.88245 | 1.96366 | 37400 ft | 469 kts | 104° |
| 2026-04-26 10:26 | 52.86615 | 2.06814 | 37411 ft | 469 kts | 104° |
| 2026-04-26 10:26 | 52.84969 | 2.17236 | 37405 ft | 468 kts | 104° |
| 2026-04-26 10:27 | 52.83311 | 2.27657 | 37402 ft | 468 kts | 104° |
| 2026-04-26 10:27 | 52.81648 | 2.38062 | 37401 ft | 468 kts | 104° |
| 2026-04-26 10:28 | 52.79973 | 2.48448 | 37403 ft | 468 kts | 104° |
| 2026-04-26 10:28 | 52.78455 | 2.58826 | 37409 ft | 467 kts | 101° |
| 2026-04-26 10:29 | 52.77152 | 2.69412 | 37405 ft | 467 kts | 100° |
| 2026-04-26 10:29 | 52.75872 | 2.79851 | 37403 ft | 467 kts | 101° |
| 2026-04-26 10:30 | 52.74511 | 2.90349 | 37401 ft | 467 kts | 101° |
| 2026-04-26 10:30 | 52.73122 | 3.00825 | 37402 ft | 467 kts | 101° |
| 2026-04-26 10:31 | 52.71991 | 3.11371 | 37399 ft | 467 kts | 97° |
| 2026-04-26 10:31 | 52.71063 | 3.21965 | 37402 ft | 466 kts | 97° |
| 2026-04-26 10:32 | 52.70108 | 3.32535 | 37403 ft | 466 kts | 98° |
| 2026-04-26 10:32 | 52.69070 | 3.43094 | 37402 ft | 466 kts | 98° |
| 2026-04-26 10:33 | 52.67995 | 3.53629 | 37410 ft | 466 kts | 99° |
| 2026-04-26 10:33 | 52.66922 | 3.64158 | 37410 ft | 466 kts | 99° |
| 2026-04-26 10:34 | 52.65861 | 3.74680 | 37408 ft | 466 kts | 99° |
| 2026-04-26 10:34 | 52.64792 | 3.85193 | 37401 ft | 465 kts | 99° |
| 2026-04-26 10:35 | 52.63710 | 3.95697 | 37402 ft | 465 kts | 99° |
| 2026-04-26 10:35 | 52.62611 | 4.06197 | 37395 ft | 465 kts | 99° |
| 2026-04-26 10:36 | 52.61504 | 4.16681 | 37395 ft | 465 kts | 99° |
| 2026-04-26 10:36 | 52.60394 | 4.27158 | 37389 ft | 465 kts | 99° |
| 2026-04-26 10:37 | 52.59277 | 4.37628 | 37388 ft | 465 kts | 99° |
| 2026-04-26 10:37 | 52.58143 | 4.48085 | 37377 ft | 465 kts | 99° |
| 2026-04-26 10:38 | 52.57001 | 4.58540 | 37377 ft | 465 kts | 100° |
| 2026-04-26 10:38 | 52.55851 | 4.68987 | 37374 ft | 465 kts | 100° |
| 2026-04-26 10:39 | 52.54694 | 4.79431 | 37374 ft | 465 kts | 100° |
| 2026-04-26 10:39 | 52.53455 | 4.89850 | 37374 ft | 465 kts | 102° |
| 2026-04-26 10:40 | 52.51959 | 5.00165 | 37380 ft | 464 kts | 104° |
| 2026-04-26 10:40 | 52.50373 | 5.10427 | 37386 ft | 463 kts | 104° |
| 2026-04-26 10:41 | 52.48818 | 5.20680 | 37384 ft | 462 kts | 104° |
| 2026-04-26 10:41 | 52.47295 | 5.30916 | 37379 ft | 462 kts | 104° |
| 2026-04-26 10:42 | 52.46024 | 5.39418 | 37375 ft | 461 kts | 104° |
| 2026-04-26 10:42 | 52.44221 | 5.51347 | 37378 ft | 461 kts | 104° |
| 2026-04-26 10:43 | 52.42672 | 5.61538 | 37378 ft | 461 kts | 104° |
| 2026-04-26 10:43 | 52.41122 | 5.71654 | 37383 ft | 461 kts | 104° |
| 2026-04-26 10:44 | 52.39552 | 5.81830 | 37375 ft | 461 kts | 104° |
| 2026-04-26 10:44 | 52.37976 | 5.91987 | 37373 ft | 461 kts | 104° |
| 2026-04-26 10:45 | 52.36395 | 6.02145 | 37368 ft | 460 kts | 104° |
| 2026-04-26 10:45 | 52.35072 | 6.10643 | 37371 ft | 460 kts | 104° |
| 2026-04-26 10:46 | 52.33471 | 6.20759 | 37364 ft | 459 kts | 105° |
| 2026-04-26 10:46 | 52.31854 | 6.30865 | 37364 ft | 459 kts | 105° |
| 2026-04-26 10:47 | 52.30238 | 6.40965 | 37364 ft | 459 kts | 105° |
| 2026-04-26 10:47 | 52.28620 | 6.51044 | 37368 ft | 459 kts | 105° |
| 2026-04-26 10:48 | 52.26986 | 6.61122 | 37371 ft | 459 kts | 105° |
| 2026-04-26 10:48 | 52.25355 | 6.71178 | 37369 ft | 458 kts | 105° |
| 2026-04-26 10:49 | 52.23721 | 6.81230 | 37366 ft | 458 kts | 105° |
| 2026-04-26 10:49 | 52.22070 | 6.91266 | 37366 ft | 458 kts | 105° |
| 2026-04-26 10:50 | 52.20411 | 7.01212 | 37370 ft | 458 kts | 105° |
| 2026-04-26 10:50 | 52.18738 | 7.11219 | 37371 ft | 457 kts | 105° |
| 2026-04-26 10:51 | 52.16232 | 7.26197 | 37368 ft | 457 kts | 105° |
| 2026-04-26 10:52 | 52.14554 | 7.36165 | 37367 ft | 457 kts | 106° |
| 2026-04-26 10:52 | 52.12862 | 7.46126 | 37365 ft | 456 kts | 106° |
| 2026-04-26 10:53 | 52.11155 | 7.56075 | 37373 ft | 456 kts | 106° |
| 2026-04-26 10:53 | 52.09443 | 7.66018 | 37373 ft | 456 kts | 106° |
| 2026-04-26 10:54 | 52.06864 | 7.80917 | 37370 ft | 456 kts | 106° |
| 2026-04-26 10:54 | 52.05138 | 7.90834 | 37367 ft | 456 kts | 106° |
| 2026-04-26 10:55 | 52.03398 | 8.00752 | 37362 ft | 457 kts | 107° |
| 2026-04-26 10:55 | 52.01650 | 8.10664 | 37353 ft | 457 kts | 107° |
| 2026-04-26 10:56 | 51.99894 | 8.20569 | 37354 ft | 457 kts | 107° |
| 2026-04-26 10:56 | 51.98131 | 8.30463 | 37353 ft | 456 kts | 107° |
| 2026-04-26 10:57 | 51.96377 | 8.40272 | 37360 ft | 455 kts | 107° |
| 2026-04-26 10:57 | 51.94698 | 8.49597 | 37358 ft | 455 kts | 107° |
| 2026-04-26 10:58 | 51.93004 | 8.58931 | 37358 ft | 455 kts | 107° |
| 2026-04-26 10:58 | 51.91209 | 8.68758 | 37356 ft | 454 kts | 107° |
| 2026-04-26 10:59 | 51.89413 | 8.78565 | 37355 ft | 454 kts | 107° |
| 2026-04-26 10:59 | 51.87612 | 8.88367 | 37354 ft | 454 kts | 107° |
| 2026-04-26 11:00 | 51.85799 | 8.98158 | 37350 ft | 454 kts | 107° |
| 2026-04-26 11:00 | 51.83979 | 9.07951 | 37346 ft | 455 kts | 107° |
| 2026-04-26 11:01 | 51.82152 | 9.17736 | 37344 ft | 455 kts | 108° |
| 2026-04-26 11:01 | 51.80315 | 9.27512 | 37344 ft | 455 kts | 108° |
| 2026-04-26 11:02 | 51.78470 | 9.37280 | 37340 ft | 454 kts | 108° |
| 2026-04-26 11:02 | 51.76614 | 9.47036 | 37340 ft | 454 kts | 108° |
| 2026-04-26 11:03 | 51.74757 | 9.56773 | 37339 ft | 455 kts | 108° |
| 2026-04-26 11:03 | 51.72892 | 9.66526 | 37340 ft | 454 kts | 108° |
| 2026-04-26 11:04 | 51.71011 | 9.76256 | 37334 ft | 454 kts | 108° |
| 2026-04-26 11:04 | 51.69116 | 9.85978 | 37337 ft | 454 kts | 108° |
| 2026-04-26 11:05 | 51.67220 | 9.95689 | 37335 ft | 455 kts | 108° |
| 2026-04-26 11:05 | 51.65327 | 10.05407 | 37331 ft | 455 kts | 108° |
| 2026-04-26 11:06 | 51.63418 | 10.15115 | 37336 ft | 455 kts | 108° |
| 2026-04-26 11:06 | 51.61513 | 10.24741 | 37339 ft | 455 kts | 108° |
| 2026-04-26 11:07 | 51.59585 | 10.34431 | 37338 ft | 455 kts | 108° |
| 2026-04-26 11:07 | 51.57652 | 10.44111 | 37332 ft | 455 kts | 109° |
| 2026-04-26 11:08 | 51.55708 | 10.53776 | 37332 ft | 454 kts | 109° |
| 2026-04-26 11:08 | 51.53759 | 10.63426 | 37335 ft | 454 kts | 109° |
| 2026-04-26 11:09 | 51.51873 | 10.73088 | 37331 ft | 454 kts | 108° |
| 2026-04-26 11:09 | 51.50040 | 10.82797 | 37330 ft | 454 kts | 108° |
| 2026-04-26 11:10 | 51.48192 | 10.92488 | 37332 ft | 454 kts | 108° |
| 2026-04-26 11:10 | 51.46317 | 11.02155 | 37332 ft | 454 kts | 108° |
| 2026-04-26 11:11 | 51.44428 | 11.11817 | 37333 ft | 454 kts | 108° |
| 2026-04-26 11:11 | 51.42537 | 11.21477 | 37325 ft | 455 kts | 108° |
| 2026-04-26 11:12 | 51.40631 | 11.31146 | 37326 ft | 455 kts | 108° |
| 2026-04-26 11:12 | 51.38722 | 11.40810 | 37330 ft | 456 kts | 108° |
| 2026-04-26 11:13 | 51.36801 | 11.50475 | 37326 ft | 456 kts | 108° |
| 2026-04-26 11:13 | 51.34870 | 11.60135 | 37327 ft | 456 kts | 108° |
| 2026-04-26 11:14 | 51.32925 | 11.69797 | 37324 ft | 457 kts | 108° |
| 2026-04-26 11:14 | 51.31303 | 11.77831 | 37325 ft | 457 kts | 108° |
| 2026-04-26 11:15 | 51.29013 | 11.89137 | 37329 ft | 457 kts | 109° |
| 2026-04-26 11:15 | 51.27040 | 11.98795 | 37330 ft | 458 kts | 109° |
| 2026-04-26 11:16 | 51.25060 | 12.08455 | 37321 ft | 458 kts | 109° |
| 2026-04-26 11:16 | 51.23072 | 12.18134 | 37318 ft | 459 kts | 109° |
| 2026-04-26 11:17 | 51.21067 | 12.27808 | 37324 ft | 460 kts | 109° |
| 2026-04-26 11:17 | 51.19061 | 12.37483 | 37329 ft | 460 kts | 109° |
| 2026-04-26 11:18 | 51.17044 | 12.47156 | 37338 ft | 460 kts | 109° |
| 2026-04-26 11:18 | 51.15012 | 12.56841 | 37313 ft | 461 kts | 109° |
| 2026-04-26 11:19 | 51.12960 | 12.66530 | 37318 ft | 462 kts | 109° |
| 2026-04-26 11:19 | 51.10905 | 12.76233 | 37305 ft | 463 kts | 109° |
| 2026-04-26 11:20 | 51.09194 | 12.84285 | 37324 ft | 462 kts | 109° |
| 2026-04-26 11:20 | 51.06795 | 12.95538 | 37327 ft | 462 kts | 109° |
| 2026-04-26 11:21 | 51.04714 | 13.05204 | 37319 ft | 462 kts | 109° |
| 2026-04-26 11:21 | 51.02620 | 13.14868 | 37313 ft | 463 kts | 109° |
| 2026-04-26 11:22 | 51.00522 | 13.24528 | 37309 ft | 463 kts | 109° |
| 2026-04-26 11:22 | 50.98423 | 13.34188 | 37323 ft | 463 kts | 109° |
| 2026-04-26 11:23 | 50.96308 | 13.43849 | 37309 ft | 464 kts | 109° |
| 2026-04-26 11:23 | 50.94177 | 13.53529 | 37296 ft | 465 kts | 109° |
| 2026-04-26 11:24 | 50.92033 | 13.63216 | 37312 ft | 466 kts | 109° |
| 2026-04-26 11:24 | 50.89883 | 13.72897 | 37313 ft | 466 kts | 109° |
| 2026-04-26 11:25 | 50.87716 | 13.82590 | 37312 ft | 467 kts | 110° |
| 2026-04-26 11:25 | 50.85546 | 13.92274 | 37307 ft | 467 kts | 110° |
| 2026-04-26 11:26 | 50.83324 | 14.01921 | 37305 ft | 467 kts | 111° |
| 2026-04-26 11:26 | 50.80830 | 14.11391 | 37300 ft | 466 kts | 114° |
| 2026-04-26 11:27 | 50.78178 | 14.20752 | 37297 ft | 467 kts | 114° |
| 2026-04-26 11:27 | 50.75535 | 14.30128 | 37280 ft | 467 kts | 114° |
| 2026-04-26 11:28 | 50.72929 | 14.39541 | 37283 ft | 468 kts | 114° |
| 2026-04-26 11:28 | 50.70334 | 14.48957 | 37292 ft | 468 kts | 114° |
| 2026-04-26 11:29 | 50.68163 | 14.56781 | 37290 ft | 469 kts | 114° |
| 2026-04-26 11:29 | 50.65533 | 14.66190 | 37292 ft | 469 kts | 114° |
| 2026-04-26 11:30 | 50.62892 | 14.75602 | 37259 ft | 470 kts | 114° |
| 2026-04-26 11:30 | 50.60245 | 14.85012 | 37284 ft | 470 kts | 114° |
| 2026-04-26 11:31 | 50.57591 | 14.94398 | 37284 ft | 470 kts | 114° |
| 2026-04-26 11:31 | 50.54918 | 15.03788 | 37297 ft | 473 kts | 114° |
| 2026-04-26 11:32 | 50.52214 | 15.13277 | 37301 ft | 476 kts | 114° |
| 2026-04-26 11:32 | 50.49501 | 15.22741 | 37299 ft | 474 kts | 114° |
| 2026-04-26 11:33 | 50.46790 | 15.32165 | 37296 ft | 473 kts | 114° |
| 2026-04-26 11:33 | 50.44078 | 15.41557 | 37289 ft | 472 kts | 114° |
| 2026-04-26 11:34 | 50.41363 | 15.50944 | 37286 ft | 473 kts | 114° |
| 2026-04-26 11:34 | 50.38639 | 15.60324 | 37270 ft | 473 kts | 114° |
| 2026-04-26 11:35 | 50.35901 | 15.69697 | 37277 ft | 473 kts | 114° |
| 2026-04-26 11:35 | 50.33150 | 15.79066 | 37269 ft | 474 kts | 114° |
| 2026-04-26 11:36 | 50.30393 | 15.88427 | 37280 ft | 474 kts | 114° |
| 2026-04-26 11:36 | 50.27624 | 15.97802 | 37261 ft | 475 kts | 114° |
| 2026-04-26 11:37 | 50.24843 | 16.07189 | 37260 ft | 476 kts | 114° |
| 2026-04-26 11:37 | 50.22047 | 16.16575 | 37258 ft | 477 kts | 115° |
| 2026-04-26 11:38 | 50.19236 | 16.25952 | 37266 ft | 477 kts | 115° |
| 2026-04-26 11:38 | 50.16444 | 16.35276 | 37248 ft | 477 kts | 114° |
| 2026-04-26 11:39 | 50.13624 | 16.44655 | 37253 ft | 478 kts | 115° |
| 2026-04-26 11:39 | 50.10791 | 16.54015 | 37254 ft | 478 kts | 115° |
| 2026-04-26 11:40 | 50.07950 | 16.63361 | 37263 ft | 478 kts | 115° |
| 2026-04-26 11:40 | 50.05104 | 16.72708 | 37259 ft | 478 kts | 114° |
| 2026-04-26 11:42 | 49.93584 | 17.10145 | 37244 ft | 481 kts | 115° |
| 2026-04-26 11:43 | 49.90682 | 17.19511 | 37237 ft | 482 kts | 115° |
| 2026-04-26 11:43 | 49.87768 | 17.28875 | 37238 ft | 482 kts | 115° |
| 2026-04-26 11:44 | 49.84842 | 17.38244 | 37240 ft | 483 kts | 115° |
| 2026-04-26 11:44 | 49.81901 | 17.47596 | 37255 ft | 483 kts | 115° |
| 2026-04-26 11:45 | 49.78946 | 17.56953 | 37235 ft | 484 kts | 115° |
| 2026-04-26 11:45 | 49.75981 | 17.66329 | 37233 ft | 485 kts | 115° |
| 2026-04-26 11:46 | 49.73002 | 17.75700 | 37237 ft | 486 kts | 115° |
| 2026-04-26 11:46 | 49.70019 | 17.85072 | 37250 ft | 486 kts | 115° |
| 2026-04-26 11:47 | 49.67025 | 17.94431 | 37253 ft | 486 kts | 115° |
| 2026-04-26 11:47 | 49.64016 | 18.03786 | 37258 ft | 487 kts | 115° |
| 2026-04-26 11:48 | 49.61023 | 18.13064 | 37259 ft | 487 kts | 115° |
| 2026-04-26 11:48 | 49.57985 | 18.22466 | 37258 ft | 487 kts | 115° |
| 2026-04-26 11:49 | 49.54980 | 18.31729 | 37258 ft | 487 kts | 115° |
| 2026-04-26 11:49 | 49.51939 | 18.41057 | 37243 ft | 488 kts | 115° |
| 2026-04-26 11:50 | 49.48877 | 18.50374 | 37229 ft | 488 kts | 115° |
| 2026-04-26 11:50 | 49.45813 | 18.59681 | 37227 ft | 488 kts | 115° |
| 2026-04-26 11:51 | 49.42747 | 18.69004 | 37231 ft | 489 kts | 115° |
| 2026-04-26 11:51 | 49.39666 | 18.78333 | 37211 ft | 490 kts | 116° |
| 2026-04-26 11:52 | 49.37094 | 18.86082 | 37199 ft | 491 kts | 116° |
| 2026-04-26 11:52 | 49.33455 | 18.96969 | 37200 ft | 491 kts | 116° |
| 2026-04-26 11:53 | 49.30336 | 19.06282 | 37205 ft | 492 kts | 116° |
| 2026-04-26 11:54 | 49.25640 | 19.20278 | 37144 ft | 493 kts | 116° |
| 2026-04-26 11:54 | 49.22498 | 19.29585 | 37176 ft | 492 kts | 116° |
| 2026-04-26 11:55 | 49.19351 | 19.38878 | 37172 ft | 492 kts | 116° |
| 2026-04-26 11:55 | 49.16187 | 19.48149 | 37168 ft | 492 kts | 117° |
| 2026-04-26 11:56 | 49.13022 | 19.57425 | 37158 ft | 492 kts | 116° |
| 2026-04-26 11:56 | 49.09855 | 19.66702 | 37140 ft | 493 kts | 116° |
| 2026-04-26 11:57 | 49.06671 | 19.75963 | 37139 ft | 493 kts | 117° |
| 2026-04-26 11:57 | 49.03471 | 19.85215 | 37126 ft | 494 kts | 117° |
| 2026-04-26 11:58 | 49.00260 | 19.94469 | 37115 ft | 494 kts | 117° |
| 2026-04-26 11:58 | 48.97044 | 20.03715 | 37116 ft | 494 kts | 117° |
| 2026-04-26 11:59 | 48.93823 | 20.12965 | 37115 ft | 495 kts | 117° |
| 2026-04-26 11:59 | 48.90591 | 20.22213 | 37121 ft | 496 kts | 117° |
| 2026-04-26 12:00 | 48.87338 | 20.31468 | 37086 ft | 497 kts | 117° |
| 2026-04-26 12:00 | 48.84066 | 20.40730 | 37084 ft | 498 kts | 117° |
| 2026-04-26 12:01 | 48.80786 | 20.49997 | 37090 ft | 499 kts | 117° |
| 2026-04-26 12:01 | 48.77515 | 20.59208 | 37070 ft | 499 kts | 117° |
| 2026-04-26 12:02 | 48.74214 | 20.68464 | 37101 ft | 499 kts | 117° |
| 2026-04-26 12:02 | 48.70906 | 20.77712 | 37114 ft | 499 kts | 117° |
| 2026-04-26 12:03 | 48.67600 | 20.86951 | 37127 ft | 499 kts | 117° |
| 2026-04-26 12:03 | 48.64279 | 20.96180 | 37132 ft | 500 kts | 117° |
| 2026-04-26 12:04 | 48.60938 | 21.05422 | 37131 ft | 501 kts | 117° |
| 2026-04-26 12:04 | 48.57582 | 21.14650 | 37135 ft | 502 kts | 117° |
| 2026-04-26 12:05 | 48.54214 | 21.23891 | 37165 ft | 502 kts | 117° |
| 2026-04-26 12:05 | 48.50771 | 21.33068 | 37127 ft | 504 kts | 120° |
| 2026-04-26 12:06 | 48.46981 | 21.41965 | 37122 ft | 505 kts | 123° |
| 2026-04-26 12:06 | 48.43046 | 21.50729 | 37120 ft | 505 kts | 123° |
| 2026-04-26 12:07 | 48.39164 | 21.59545 | 37117 ft | 505 kts | 122° |
| 2026-04-26 12:07 | 48.35339 | 21.68406 | 37118 ft | 505 kts | 122° |
| 2026-04-26 12:08 | 48.31514 | 21.77259 | 37104 ft | 504 kts | 122° |
| 2026-04-26 12:08 | 48.27684 | 21.86076 | 37129 ft | 503 kts | 122° |
| 2026-04-26 12:09 | 48.23865 | 21.94785 | 37145 ft | 503 kts | 123° |
| 2026-04-26 12:09 | 48.20013 | 22.03517 | 37131 ft | 502 kts | 123° |
| 2026-04-26 12:10 | 48.16161 | 22.12248 | 37123 ft | 502 kts | 123° |
| 2026-04-26 12:10 | 48.12307 | 22.20977 | 37122 ft | 502 kts | 123° |
| 2026-04-26 12:11 | 48.08445 | 22.29695 | 37122 ft | 503 kts | 123° |
| 2026-04-26 12:11 | 48.04564 | 22.38417 | 37104 ft | 504 kts | 123° |
| 2026-04-26 12:12 | 48.00674 | 22.47136 | 37097 ft | 505 kts | 123° |
| 2026-04-26 12:12 | 47.96767 | 22.55856 | 37099 ft | 506 kts | 123° |
| 2026-04-26 12:13 | 47.92847 | 22.64578 | 37112 ft | 507 kts | 123° |
| 2026-04-26 12:13 | 47.88917 | 22.73301 | 37070 ft | 507 kts | 123° |
| 2026-04-26 12:14 | 47.84975 | 22.82011 | 37092 ft | 507 kts | 123° |
| 2026-04-26 12:14 | 47.81036 | 22.90697 | 37103 ft | 506 kts | 123° |
| 2026-04-26 12:15 | 47.77083 | 22.99365 | 37100 ft | 506 kts | 124° |
| 2026-04-26 12:15 | 47.73792 | 23.06562 | 37100 ft | 506 kts | 123° |
| 2026-04-26 12:16 | 47.70446 | 23.15695 | 37093 ft | 503 kts | 107° |
| 2026-04-26 12:16 | 47.68919 | 23.25698 | 37089 ft | 493 kts | 89° |
| 2026-04-26 12:17 | 47.68382 | 23.35841 | 37073 ft | 493 kts | 90° |
| 2026-04-26 12:17 | 47.67798 | 23.45995 | 37041 ft | 494 kts | 90° |
| 2026-04-26 12:18 | 47.67203 | 23.56154 | 37038 ft | 494 kts | 90° |
| 2026-04-26 12:18 | 47.66610 | 23.66321 | 37040 ft | 495 kts | 90° |
| 2026-04-26 12:19 | 47.66016 | 23.76489 | 37053 ft | 495 kts | 90° |
| 2026-04-26 12:19 | 47.65410 | 23.86605 | 37039 ft | 496 kts | 91° |
| 2026-04-26 12:20 | 47.64777 | 23.96878 | 37027 ft | 498 kts | 90° |
| 2026-04-26 12:20 | 47.64154 | 24.07042 | 37001 ft | 499 kts | 90° |
| 2026-04-26 12:21 | 47.63515 | 24.17299 | 37002 ft | 500 kts | 91° |
| 2026-04-26 12:21 | 47.62861 | 24.27582 | 36994 ft | 501 kts | 91° |
| 2026-04-26 12:22 | 47.62198 | 24.37884 | 36984 ft | 503 kts | 91° |
| 2026-04-26 12:22 | 47.61523 | 24.48201 | 36992 ft | 503 kts | 91° |
| 2026-04-26 12:23 | 47.60829 | 24.58518 | 36981 ft | 502 kts | 91° |
| 2026-04-26 12:23 | 47.60138 | 24.68827 | 36960 ft | 502 kts | 91° |
| 2026-04-26 12:24 | 47.59444 | 24.79136 | 36978 ft | 504 kts | 92° |
| 2026-04-26 12:24 | 47.58731 | 24.89462 | 36979 ft | 504 kts | 92° |
| 2026-04-26 12:25 | 47.57634 | 25.04947 | 36992 ft | 504 kts | 92° |
| 2026-04-26 12:25 | 47.56894 | 25.15275 | 36370 ft | 508 kts | 92° |
| 2026-04-26 12:26 | 47.56517 | 25.20568 | 35219 ft | 522 kts | 91° |
| 2026-04-26 12:26 | 47.56135 | 25.25883 | 34896 ft | 515 kts | 91° |
| 2026-04-26 12:26 | 47.55751 | 25.31144 | 34311 ft | 514 kts | 91° |
| 2026-04-26 12:26 | 47.55365 | 25.36411 | 33721 ft | 516 kts | 90° |
| 2026-04-26 12:27 | 47.54975 | 25.41679 | 33163 ft | 513 kts | 90° |
| 2026-04-26 12:27 | 47.54583 | 25.46920 | 32564 ft | 511 kts | 90° |
| 2026-04-26 12:27 | 47.54192 | 25.52135 | 31995 ft | 509 kts | 90° |
| 2026-04-26 12:27 | 47.53802 | 25.57330 | 31429 ft | 507 kts | 90° |
| 2026-04-26 12:28 | 47.53413 | 25.62507 | 30858 ft | 505 kts | 90° |
| 2026-04-26 12:28 | 47.53023 | 25.67658 | 30312 ft | 503 kts | 90° |
| 2026-04-26 12:28 | 47.52628 | 25.72785 | 29720 ft | 501 kts | 90° |
| 2026-04-26 12:28 | 47.52230 | 25.77881 | 29203 ft | 495 kts | 90° |
| 2026-04-26 12:29 | 47.51833 | 25.82921 | 28744 ft | 490 kts | 90° |
| 2026-04-26 12:29 | 47.51479 | 25.87892 | 28296 ft | 481 kts | 85° |
| 2026-04-26 12:29 | 47.51412 | 25.97639 | 27446 ft | 469 kts | 83° |
| 2026-04-26 12:30 | 47.51394 | 26.02447 | 27014 ft | 466 kts | 83° |
| 2026-04-26 12:30 | 47.51373 | 26.07219 | 26592 ft | 463 kts | 83° |
| 2026-04-26 12:30 | 47.51352 | 26.11964 | 26162 ft | 460 kts | 83° |
| 2026-04-26 12:31 | 47.51302 | 26.21398 | 25273 ft | 457 kts | 83° |
| 2026-04-26 12:31 | 47.51272 | 26.26086 | 24790 ft | 456 kts | 83° |
| 2026-04-26 12:31 | 47.51239 | 26.30768 | 24339 ft | 455 kts | 83° |
| 2026-04-26 12:31 | 47.51206 | 26.35434 | 23875 ft | 454 kts | 83° |
| 2026-04-26 12:32 | 47.51172 | 26.40097 | 23369 ft | 453 kts | 84° |
| 2026-04-26 12:32 | 47.51135 | 26.44751 | 22874 ft | 451 kts | 84° |
| 2026-04-26 12:32 | 47.51052 | 26.53981 | 21915 ft | 447 kts | 84° |
| 2026-04-26 12:33 | 47.51006 | 26.58557 | 21450 ft | 444 kts | 84° |
| 2026-04-26 12:33 | 47.50958 | 26.63103 | 20974 ft | 441 kts | 84° |
| 2026-04-26 12:33 | 47.50910 | 26.67624 | 20494 ft | 439 kts | 85° |
| 2026-04-26 12:33 | 47.50861 | 26.72125 | 20013 ft | 437 kts | 85° |
| 2026-04-26 12:34 | 47.50811 | 26.76601 | 19539 ft | 434 kts | 85° |
| 2026-04-26 12:34 | 47.50555 | 26.81060 | 19057 ft | 439 kts | 97° |
| 2026-04-26 12:34 | 47.49683 | 26.85380 | 18649 ft | 438 kts | 112° |
| 2026-04-26 12:34 | 47.48338 | 26.89353 | 18169 ft | 436 kts | 118° |
| 2026-04-26 12:35 | 47.46894 | 26.93344 | 17614 ft | 435 kts | 118° |
| 2026-04-26 12:35 | 47.45506 | 26.97195 | 17277 ft | 427 kts | 118° |
| 2026-04-26 12:35 | 47.44129 | 27.01032 | 16577 ft | 419 kts | 118° |
| 2026-04-26 12:35 | 47.42791 | 27.04763 | 16137 ft | 404 kts | 118° |
| 2026-04-26 12:36 | 47.41497 | 27.08368 | 15681 ft | 391 kts | 119° |
| 2026-04-26 12:36 | 47.40234 | 27.11878 | 15248 ft | 385 kts | 119° |
| 2026-04-26 12:36 | 47.38974 | 27.15367 | 14810 ft | 386 kts | 119° |
| 2026-04-26 12:36 | 47.37705 | 27.18860 | 14368 ft | 387 kts | 120° |
| 2026-04-26 12:37 | 47.36429 | 27.22365 | 13925 ft | 387 kts | 120° |
| 2026-04-26 12:37 | 47.35152 | 27.25863 | 13443 ft | 388 kts | 121° |
| 2026-04-26 12:37 | 47.33661 | 27.29100 | 13206 ft | 375 kts | 135° |
| 2026-04-26 12:37 | 47.31846 | 27.31732 | 13033 ft | 358 kts | 147° |
| 2026-04-26 12:38 | 47.29827 | 27.33780 | 12717 ft | 349 kts | 155° |
| 2026-04-26 12:38 | 47.27786 | 27.35688 | 12340 ft | 345 kts | 155° |
| 2026-04-26 12:38 | 47.25769 | 27.37563 | 12042 ft | 341 kts | 155° |
| 2026-04-26 12:38 | 47.23784 | 27.39406 | 11516 ft | 334 kts | 155° |
| 2026-04-26 12:39 | 47.21835 | 27.41213 | 10948 ft | 328 kts | 155° |
| 2026-04-26 12:39 | 47.19922 | 27.42991 | 10398 ft | 322 kts | 155° |
| 2026-04-26 12:39 | 47.18046 | 27.44735 | 9898 ft | 315 kts | 156° |
| 2026-04-26 12:39 | 47.16225 | 27.46432 | 9475 ft | 307 kts | 156° |
| 2026-04-26 12:40 | 47.14414 | 27.48107 | 9104 ft | 307 kts | 155° |
| 2026-04-26 12:40 | 47.12603 | 27.49771 | 8735 ft | 307 kts | 155° |
| 2026-04-26 12:40 | 47.10793 | 27.51433 | 8333 ft | 308 kts | 154° |
| 2026-04-26 12:40 | 47.08963 | 27.53088 | 7931 ft | 310 kts | 154° |
| 2026-04-26 12:41 | 47.07119 | 27.54727 | 7536 ft | 311 kts | 154° |
| 2026-04-26 12:41 | 47.05259 | 27.56363 | 7139 ft | 313 kts | 153° |
| 2026-04-26 12:41 | 47.03385 | 27.58006 | 6735 ft | 316 kts | 153° |
| 2026-04-26 12:41 | 47.01517 | 27.59645 | 6327 ft | 319 kts | 152° |
| 2026-04-26 12:42 | 46.99730 | 27.61577 | 5886 ft | 321 kts | 130° |
| 2026-04-26 12:42 | 46.98727 | 27.64420 | 5467 ft | 312 kts | 96° |
| 2026-04-26 12:42 | 46.98830 | 27.67466 | 5039 ft | 293 kts | 63° |
| 2026-04-26 12:42 | 46.99691 | 27.70080 | 4666 ft | 281 kts | 50° |
| 2026-04-26 12:43 | 47.00748 | 27.72435 | 4261 ft | 270 kts | 47° |
| 2026-04-26 12:43 | 47.01972 | 27.74306 | 3895 ft | 240 kts | 20° |
| 2026-04-26 12:43 | 47.03475 | 27.74714 | 3605 ft | 210 kts | 346° |
| 2026-04-26 12:43 | 47.04718 | 27.73815 | 3334 ft | 196 kts | 324° |
| 2026-04-26 12:44 | 47.05833 | 27.72710 | 3099 ft | 190 kts | 329° |
| 2026-04-26 12:44 | 47.06955 | 27.71737 | 2861 ft | 186 kts | 330° |
| 2026-04-26 12:44 | 47.08061 | 27.70797 | 2623 ft | 181 kts | 330° |
| 2026-04-26 12:44 | 47.09138 | 27.69878 | 2391 ft | 178 kts | 330° |
| 2026-04-26 12:45 | 47.10209 | 27.68958 | 2130 ft | 177 kts | 330° |
| 2026-04-26 12:45 | 47.11218 | 27.68082 | 2020 ft | 161 kts | 330° |
| 2026-04-26 12:45 | 47.12122 | 27.67371 | 2022 ft | 137 kts | 343° |
| 2026-04-26 12:45 | 47.13028 | 27.67576 | 2023 ft | 135 kts | 12° |
| 2026-04-26 12:46 | 47.13963 | 27.67726 | 2019 ft | 140 kts | 339° |
| 2026-04-26 12:46 | 47.14755 | 27.66873 | 2014 ft | 144 kts | 319° |
| 2026-04-26 12:46 | 47.15448 | 27.65809 | 2004 ft | 143 kts | 324° |
| 2026-04-26 12:46 | 47.16285 | 27.64985 | 2183 ft | 151 kts | 328° |
| 2026-04-26 12:47 | 47.17209 | 27.64096 | 2615 ft | 169 kts | 328° |
| 2026-04-26 12:47 | 47.18231 | 27.63109 | 3160 ft | 180 kts | 328° |
| 2026-04-26 12:47 | 47.19287 | 27.62091 | 3985 ft | 183 kts | 328° |
| 2026-04-26 12:47 | 47.20360 | 27.61055 | 4769 ft | 187 kts | 327° |
| 2026-04-26 12:48 | 47.21165 | 27.60277 | 4937 ft | 187 kts | 327° |
| 2026-04-26 12:49 | 47.22207 | 27.59270 | 4919 ft | 182 kts | 327° |
| 2026-04-26 12:49 | 47.23168 | 27.58060 | 5001 ft | 183 kts | 305° |
| 2026-04-26 12:50 | 47.23541 | 27.56253 | 5001 ft | 193 kts | 278° |
| 2026-04-26 12:50 | 47.23123 | 27.54294 | 4997 ft | 220 kts | 242° |
| 2026-04-26 12:50 | 47.21786 | 27.52988 | 5004 ft | 246 kts | 205° |
| 2026-04-26 12:50 | 47.20086 | 27.52446 | 5003 ft | 252 kts | 194° |
| 2026-04-26 12:51 | 47.18334 | 27.52162 | 5014 ft | 254 kts | 191° |
| 2026-04-26 12:51 | 47.16573 | 27.51947 | 5015 ft | 254 kts | 191° |
| 2026-04-26 12:51 | 47.14807 | 27.51726 | 5015 ft | 254 kts | 191° |
| 2026-04-26 12:51 | 47.13052 | 27.51480 | 5005 ft | 254 kts | 192° |
| 2026-04-26 12:52 | 47.11276 | 27.51381 | 5006 ft | 261 kts | 173° |
| 2026-04-26 12:52 | 47.09601 | 27.52423 | 4968 ft | 265 kts | 149° |
| 2026-04-26 12:52 | 47.08020 | 27.53823 | 4975 ft | 266 kts | 149° |
| 2026-04-26 12:52 | 47.06442 | 27.55236 | 4973 ft | 265 kts | 148° |
| 2026-04-26 12:53 | 47.04906 | 27.56611 | 4972 ft | 252 kts | 148° |
| 2026-04-26 12:53 | 47.03445 | 27.57917 | 4972 ft | 241 kts | 149° |
| 2026-04-26 12:53 | 47.02018 | 27.59187 | 4977 ft | 239 kts | 149° |
| 2026-04-26 12:53 | 47.00719 | 27.60559 | 4917 ft | 226 kts | 132° |
| 2026-04-26 12:54 | 46.99790 | 27.62389 | 4471 ft | 223 kts | 109° |
| 2026-04-26 12:54 | 46.99328 | 27.64498 | 4025 ft | 210 kts | 89° |
| 2026-04-26 12:54 | 46.99306 | 27.66549 | 3793 ft | 195 kts | 71° |
| 2026-04-26 12:54 | 46.99636 | 27.68402 | 3628 ft | 183 kts | 55° |
| 2026-04-26 12:55 | 47.00233 | 27.70008 | 3490 ft | 178 kts | 46° |
| 2026-04-26 12:55 | 47.00880 | 27.71556 | 3352 ft | 177 kts | 46° |
| 2026-04-26 12:55 | 47.01508 | 27.73064 | 3214 ft | 169 kts | 43° |
| 2026-04-26 12:55 | 47.02294 | 27.74139 | 3088 ft | 146 kts | 16° |
| 2026-04-26 12:56 | 47.03220 | 27.74538 | 2990 ft | 134 kts | 356° |
| 2026-04-26 12:56 | 47.04117 | 27.74355 | 2902 ft | 131 kts | 337° |
| 2026-04-26 12:56 | 47.04916 | 27.73721 | 2799 ft | 130 kts | 329° |
| 2026-04-26 12:56 | 47.05682 | 27.73038 | 2719 ft | 128 kts | 329° |
| 2026-04-26 12:57 | 47.06436 | 27.72369 | 2663 ft | 123 kts | 329° |
| 2026-04-26 12:57 | 47.07176 | 27.71753 | 2556 ft | 120 kts | 331° |
| 2026-04-26 12:57 | 47.07915 | 27.71162 | 2410 ft | 121 kts | 332° |
| 2026-04-26 12:58 | 47.09398 | 27.70020 | 2201 ft | 120 kts | 332° |
| 2026-04-26 12:58 | 47.10126 | 27.69432 | 2059 ft | 118 kts | 332° |
| 2026-04-26 12:58 | 47.10824 | 27.68786 | 1860 ft | 119 kts | 328° |
| 2026-04-26 12:58 | 47.11502 | 27.68108 | 1802 ft | 117 kts | 329° |
| 2026-04-26 12:59 | 47.12191 | 27.67460 | 1694 ft | 120 kts | 331° |
| 2026-04-26 12:59 | 47.12910 | 27.66843 | 1533 ft | 119 kts | 332° |
| 2026-04-26 12:59 | 47.13625 | 27.66224 | 1344 ft | 118 kts | 327° |
| 2026-04-26 12:59 | 47.14302 | 27.65561 | 1181 ft | 116 kts | 327° |
| 2026-04-26 13:00 | 47.14990 | 27.64911 | 975 ft | 118 kts | 328° |
| 2026-04-26 13:00 | 47.15698 | 27.64266 | 723 ft | 120 kts | 326° |
| 2026-04-26 13:00 | 47.16389 | 27.63582 | 537 ft | 118 kts | 327° |
| 2026-04-26 13:00 | 47.17071 | 27.62949 | 404 ft | 117 kts | 329° |
| 2026-04-26 13:01 | 47.17729 | 27.62359 | 369 ft | 94 kts | 327° |
| 2026-04-26 13:01 | 47.18031 | 27.62086 | 382 ft | 61 kts | 329° |
| 2026-04-26 13:01 | 47.18250 | 27.61892 | 391 ft | 17 kts | 326° |
| 2026-04-26 13:01 | 47.18294 | 27.61846 | 393 ft | 4 kts | 9° |
| 2026-04-26 13:02 | 47.18294 | 27.61856 | 393 ft | 1 kts | 91° |
| 2026-04-26 13:02 | 47.18281 | 27.61865 | 392 ft | 6 kts | 156° |
| 2026-04-26 13:02 | 47.18217 | 27.61916 | 389 ft | 14 kts | 149° |
| 2026-04-26 13:02 | 47.18118 | 27.62008 | 386 ft | 18 kts | 144° |
| 2026-04-26 13:03 | 47.18012 | 27.62111 | 381 ft | 21 kts | 145° |
| 2026-04-26 13:03 | 47.17902 | 27.62210 | 376 ft | 19 kts | 153° |
| 2026-04-26 13:03 | 47.17834 | 27.62152 | 375 ft | 10 kts | 243° |
| 2026-04-26 13:03 | 47.17804 | 27.62057 | 377 ft | 11 kts | 245° |
| 2026-04-26 13:04 | 47.17774 | 27.61970 | 378 ft | 8 kts | 242° |
| 2026-04-26 13:04 | 47.17738 | 27.61927 | 379 ft | 7 kts | 182° |
| 2026-04-26 13:04 | 47.17687 | 27.61961 | 379 ft | 10 kts | 151° |
| 2026-04-26 13:04 | 47.17626 | 27.62006 | 379 ft | 11 kts | 153° |
| 2026-04-26 13:05 | 47.17555 | 27.62057 | 379 ft | 11 kts | 154° |
| 2026-04-26 13:05 | 47.17527 | 27.62057 | 380 ft | 3 kts | 257° |
| 2026-04-26 13:05 | 47.17529 | 27.61993 | 379 ft | 7 kts | 274° |
| 2026-04-26 13:05 | 47.17530 | 27.61974 | 379 ft | 0 kts | 274° |